createdAt,value
2022-07-29T00:01:06.615Z,37.70
2022-07-29T00:03:53.584Z,37.80
2022-07-29T00:06:33.623Z,37.80
2022-07-29T00:09:20.535Z,37.90
2022-07-29T00:12:09.568Z,37.90
2022-07-29T00:14:56.628Z,37.90
2022-07-29T00:17:36.513Z,37.80
2022-07-29T00:20:23.510Z,37.90
2022-07-29T00:23:13.696Z,38.00
2022-07-29T00:26:07.502Z,38.10
2022-07-29T00:29:17.099Z,38.10
2022-07-29T00:32:13.579Z,38.00
2022-07-29T00:35:18.506Z,39.00
2022-07-29T00:37:58.725Z,38.10
2022-07-29T00:40:45.511Z,38.00
2022-07-29T00:43:25.960Z,38.10
2022-07-29T00:46:12.605Z,38.20
2022-07-29T00:48:52.661Z,38.30
2022-07-29T00:51:39.521Z,38.30
2022-07-29T00:54:26.506Z,38.30
2022-07-29T00:57:32.514Z,38.40
2022-07-29T01:00:21.526Z,38.40
2022-07-29T01:03:08.603Z,38.40
2022-07-29T01:05:52.011Z,39.50
2022-07-29T01:08:39.565Z,38.50
2022-07-29T01:11:20.521Z,38.60
2022-07-29T01:14:08.635Z,38.70
2022-07-29T01:17:16.517Z,38.60
2022-07-29T01:20:13.522Z,38.70
2022-07-29T01:23:21.540Z,38.60
2022-07-29T01:26:45.540Z,38.80
2022-07-29T01:30:05.424Z,38.70
2022-07-29T01:32:47.567Z,38.70
2022-07-29T01:35:56.545Z,38.80
2022-07-29T01:38:36.559Z,38.90
2022-07-29T01:41:27.501Z,38.90
2022-07-29T01:44:24.509Z,39.00
2022-07-29T01:47:21.513Z,38.90
2022-07-29T01:50:12.520Z,38.90
2022-07-29T01:53:04.579Z,39.00
2022-07-29T01:55:50.531Z,39.00
2022-07-29T01:58:33.718Z,39.00
2022-07-29T02:01:22.604Z,39.20
2022-07-29T02:04:12.777Z,39.10
2022-07-29T02:07:13.514Z,39.20
2022-07-29T02:09:55.623Z,39.10
2022-07-29T02:12:43.509Z,39.10
2022-07-29T02:15:39.649Z,39.20
2022-07-29T02:18:24.529Z,39.20
2022-07-29T02:21:15.164Z,39.20
2022-07-29T02:23:57.522Z,39.20
2022-07-29T02:26:53.517Z,39.20
2022-07-29T02:29:35.513Z,39.30
2022-07-29T02:32:25.518Z,39.30
2022-07-29T02:35:13.525Z,39.30
2022-07-29T02:38:19.526Z,40.40
2022-07-29T02:41:12.272Z,39.40
2022-07-29T02:43:54.534Z,39.40
2022-07-29T02:46:44.673Z,39.40
2022-07-29T02:49:41.542Z,39.40
2022-07-29T02:52:38.726Z,39.50
2022-07-29T02:55:30.539Z,39.40
2022-07-29T02:58:29.252Z,39.40
2022-07-29T03:01:31.585Z,39.60
2022-07-29T03:04:21.063Z,39.50
2022-07-29T03:07:02.547Z,39.50
2022-07-29T03:09:50.582Z,39.60
2022-07-29T03:12:31.518Z,39.70
2022-07-29T03:15:18.653Z,39.70
2022-07-29T03:17:59.531Z,39.80
2022-07-29T03:20:40.592Z,39.70
2022-07-29T03:23:36.937Z,39.80
2022-07-29T03:26:30.542Z,39.90
2022-07-29T03:29:17.530Z,39.80
2022-07-29T03:32:08.161Z,39.80
2022-07-29T03:34:55.593Z,39.80
2022-07-29T03:37:36.506Z,39.90
2022-07-29T03:40:33.644Z,39.90
2022-07-29T03:43:16.526Z,40.00
2022-07-29T03:46:05.678Z,39.90
2022-07-29T03:48:53.557Z,39.90
2022-07-29T03:51:34.448Z,40.50
2022-07-29T03:54:21.935Z,39.90
2022-07-29T03:57:04.434Z,39.90
2022-07-29T03:59:52.548Z,40.00
2022-07-29T04:02:40.533Z,39.90
2022-07-29T04:05:22.137Z,41.00
2022-07-29T04:08:08.536Z,39.90
2022-07-29T04:10:55.518Z,40.00
2022-07-29T04:13:42.551Z,40.00
2022-07-29T04:16:22.649Z,40.00
2022-07-29T04:19:09.558Z,39.90
2022-07-29T04:21:49.577Z,39.90
2022-07-29T04:24:36.566Z,39.90
2022-07-29T04:27:23.597Z,39.90
2022-07-29T04:30:03.521Z,40.00
2022-07-29T04:32:50.612Z,39.90
2022-07-29T04:35:30.551Z,40.00
2022-07-29T04:38:24.594Z,39.90
2022-07-29T04:41:04.547Z,39.90
2022-07-29T04:43:47.118Z,39.90
2022-07-29T04:46:33.662Z,39.90
2022-07-29T04:49:20.659Z,40.00
2022-07-29T04:52:00.601Z,39.90
2022-07-29T04:54:41.025Z,40.00
2022-07-29T04:57:27.545Z,39.90
2022-07-29T05:00:15.621Z,39.90
2022-07-29T05:02:55.611Z,39.90
2022-07-29T05:05:36.136Z,40.00
2022-07-29T05:08:22.541Z,39.90
2022-07-29T05:11:11.978Z,39.90
2022-07-29T05:13:52.559Z,39.80
2022-07-29T05:16:33.082Z,39.90
2022-07-29T05:19:19.557Z,39.90
2022-07-29T05:22:07.534Z,40.00
2022-07-29T05:24:47.653Z,39.90
2022-07-29T05:27:34.541Z,40.00
2022-07-29T05:30:14.790Z,39.90
2022-07-29T05:33:01.552Z,39.90
2022-07-29T05:35:41.614Z,39.90
2022-07-29T05:38:28.561Z,39.90
2022-07-29T05:41:08.616Z,39.90
2022-07-29T05:43:55.557Z,39.90
2022-07-29T05:46:35.660Z,39.90
2022-07-29T05:49:23.067Z,40.00
2022-07-29T05:52:06.615Z,40.00
2022-07-29T05:54:53.553Z,40.00
2022-07-29T05:57:33.665Z,40.00
2022-07-29T06:00:20.536Z,39.90
2022-07-29T06:03:00.614Z,40.00
2022-07-29T06:05:47.558Z,39.80
2022-07-29T06:08:27.590Z,39.70
2022-07-29T06:11:15.555Z,39.70
2022-07-29T06:14:02.553Z,39.60
2022-07-29T06:16:43.649Z,39.50
2022-07-29T06:19:30.556Z,39.40
2022-07-29T06:22:17.570Z,40.30
2022-07-29T06:25:04.582Z,39.30
2022-07-29T06:27:51.642Z,39.20
2022-07-29T06:30:38.598Z,39.20
2022-07-29T06:33:26.614Z,39.10
2022-07-29T06:36:07.574Z,39.20
2022-07-29T06:39:01.560Z,39.30
2022-07-29T06:41:57.575Z,39.30
2022-07-29T06:44:38.780Z,39.20
2022-07-29T06:47:25.552Z,39.30
2022-07-29T06:50:05.789Z,39.20
2022-07-29T06:52:54.550Z,39.10
2022-07-29T06:55:34.618Z,39.00
2022-07-29T06:58:23.564Z,38.90
2022-07-29T07:01:07.672Z,38.80
2022-07-29T07:03:54.572Z,38.70
2022-07-29T07:06:34.650Z,38.60
2022-07-29T07:09:21.560Z,38.40
2022-07-29T07:12:08.549Z,38.30
2022-07-29T07:14:49.181Z,38.30
2022-07-29T07:17:35.570Z,38.00
2022-07-29T07:20:17.071Z,37.80
2022-07-29T07:23:03.571Z,37.80
2022-07-29T07:25:50.635Z,37.60
2022-07-29T07:28:37.579Z,37.30
2022-07-29T07:31:25.635Z,37.10
2022-07-29T07:34:12.693Z,37.20
2022-07-29T07:36:52.574Z,36.90
2022-07-29T07:39:39.557Z,36.80
2022-07-29T07:42:26.572Z,36.50
2022-07-29T07:45:16.849Z,36.20
2022-07-29T07:47:56.640Z,35.90
2022-07-29T07:50:44.572Z,35.70
2022-07-29T07:53:31.593Z,35.40
2022-07-29T07:56:19.560Z,35.10
2022-07-29T07:58:59.616Z,36.00
2022-07-29T08:01:55.532Z,34.60
2022-07-29T08:04:36.671Z,34.40
2022-07-29T08:07:23.589Z,34.10
2022-07-29T08:10:03.630Z,33.80
2022-07-29T08:12:50.598Z,33.60
2022-07-29T08:15:30.635Z,33.30
2022-07-29T08:18:17.568Z,33.30
2022-07-29T08:21:05.577Z,33.40
2022-07-29T08:24:21.567Z,33.40
2022-07-29T08:27:27.002Z,33.40
2022-07-29T08:30:09.345Z,33.50
2022-07-29T08:32:56.305Z,33.50
2022-07-29T08:35:36.461Z,34.60
2022-07-29T08:38:23.596Z,33.60
2022-07-29T08:41:04.310Z,33.50
2022-07-29T08:43:50.578Z,33.00
2022-07-29T08:46:31.176Z,32.70
2022-07-29T08:49:17.674Z,32.30
2022-07-29T08:52:05.670Z,31.90
2022-07-29T08:54:51.582Z,31.30
2022-07-29T08:57:33.617Z,30.90
2022-07-29T09:00:21.596Z,30.50
2022-07-29T09:03:02.910Z,30.30
2022-07-29T09:05:49.608Z,30.10
2022-07-29T09:08:38.584Z,30.00
2022-07-29T09:11:27.601Z,29.80
2022-07-29T09:14:15.607Z,29.70
2022-07-29T09:17:03.980Z,30.10
2022-07-29T09:19:50.591Z,29.20
2022-07-29T09:22:41.733Z,29.10
2022-07-29T09:25:44.593Z,28.90
2022-07-29T09:28:32.599Z,29.10
2022-07-29T09:31:19.651Z,29.10
2022-07-29T09:34:02.647Z,29.00
2022-07-29T09:36:51.669Z,28.90
2022-07-29T09:39:38.125Z,29.00
2022-07-29T09:42:35.585Z,28.90
2022-07-29T09:45:23.597Z,28.90
2022-07-29T09:48:31.599Z,28.70
2022-07-29T09:51:12.060Z,28.60
2022-07-29T09:53:59.594Z,28.40
2022-07-29T09:56:48.993Z,28.10
2022-07-29T09:59:35.611Z,27.90
2022-07-29T10:02:23.718Z,27.90
2022-07-29T10:05:23.607Z,27.90
2022-07-29T10:08:04.657Z,27.90
2022-07-29T10:10:51.626Z,27.90
2022-07-29T10:13:33.652Z,28.00
2022-07-29T10:16:22.658Z,28.10
2022-07-29T10:19:09.598Z,28.20
2022-07-29T10:21:52.873Z,28.10
2022-07-29T10:24:43.602Z,28.20
2022-07-29T10:27:37.610Z,28.20
2022-07-29T10:30:25.615Z,28.30
2022-07-29T10:33:24.720Z,28.30
2022-07-29T10:36:31.613Z,28.40
2022-07-29T10:39:56.609Z,29.10
2022-07-29T10:42:48.637Z,28.10
2022-07-29T10:45:30.678Z,27.90
2022-07-29T10:48:19.211Z,27.80
2022-07-29T10:51:09.210Z,27.70
2022-07-29T10:54:00.606Z,27.50
2022-07-29T10:56:41.470Z,27.40
2022-07-29T10:59:36.168Z,27.40
2022-07-29T11:02:49.875Z,27.20
2022-07-29T11:05:40.711Z,27.30
2022-07-29T11:08:27.813Z,27.20
2022-07-29T11:11:29.520Z,27.10
2022-07-29T11:14:16.627Z,27.10
2022-07-29T11:17:13.927Z,27.00
2022-07-29T11:20:00.613Z,27.00
2022-07-29T11:22:43.154Z,26.90
2022-07-29T11:25:50.355Z,26.80
2022-07-29T11:28:37.696Z,26.90
2022-07-29T11:31:19.629Z,26.80
2022-07-29T11:34:36.599Z,26.90
2022-07-29T11:37:17.798Z,27.00
2022-07-29T11:40:04.674Z,26.90
2022-07-29T11:42:46.632Z,26.90
2022-07-29T11:45:45.595Z,26.90
2022-07-29T11:48:34.760Z,27.00
2022-07-29T11:51:16.187Z,27.10
2022-07-29T11:54:05.453Z,27.10
2022-07-29T11:56:53.999Z,27.10
2022-07-29T11:59:40.620Z,27.00
2022-07-29T12:02:38.317Z,27.10
2022-07-29T12:05:35.997Z,27.00
2022-07-29T12:08:20.577Z,27.00
2022-07-29T12:11:07.646Z,27.00
2022-07-29T12:13:47.733Z,27.00
2022-07-29T12:16:44.682Z,27.10
2022-07-29T12:19:24.681Z,27.00
2022-07-29T12:22:12.650Z,27.10
2022-07-29T12:24:54.555Z,27.20
2022-07-29T12:27:46.135Z,27.20
2022-07-29T12:30:25.694Z,27.10
2022-07-29T12:33:25.655Z,27.20
2022-07-29T12:36:17.975Z,27.30
2022-07-29T12:38:58.218Z,27.30
2022-07-29T12:41:44.657Z,27.30
2022-07-29T12:44:31.684Z,27.40
2022-07-29T12:47:11.663Z,27.40
2022-07-29T12:50:07.847Z,27.50
2022-07-29T12:52:54.665Z,27.50
2022-07-29T12:55:52.596Z,27.60
2022-07-29T12:58:44.526Z,27.70
2022-07-29T13:01:31.786Z,27.80
2022-07-29T13:04:11.630Z,27.90
2022-07-29T13:07:16.657Z,28.00
2022-07-29T13:10:19.773Z,28.10
2022-07-29T13:13:09.662Z,28.30
2022-07-29T13:16:13.723Z,28.40
2022-07-29T13:18:53.662Z,28.50
2022-07-29T13:21:40.793Z,28.60
2022-07-29T13:24:20.644Z,28.80
2022-07-29T13:27:14.665Z,28.90
2022-07-29T13:30:10.657Z,29.00
2022-07-29T13:32:53.447Z,29.10
2022-07-29T13:35:39.991Z,29.20
2022-07-29T13:38:31.081Z,29.30
2022-07-29T13:41:10.652Z,29.40
2022-07-29T13:43:57.658Z,29.60
2022-07-29T13:46:40.085Z,29.60
2022-07-29T13:49:26.650Z,29.70
2022-07-29T13:52:08.358Z,29.90
2022-07-29T13:54:54.710Z,29.90
2022-07-29T13:57:36.393Z,30.00
2022-07-29T14:00:23.666Z,30.00
2022-07-29T14:03:03.727Z,30.20
2022-07-29T14:05:50.694Z,30.40
2022-07-29T14:08:30.719Z,30.50
2022-07-29T14:11:17.683Z,30.50
2022-07-29T14:13:57.757Z,30.50
2022-07-29T14:16:47.730Z,30.60
2022-07-29T14:19:29.715Z,30.70
2022-07-29T14:22:17.657Z,30.80
2022-07-29T14:24:57.746Z,30.90
2022-07-29T14:27:58.684Z,31.00
2022-07-29T14:30:45.813Z,31.10
2022-07-29T14:33:25.686Z,31.20
2022-07-29T14:36:12.802Z,31.20
2022-07-29T14:38:52.683Z,31.30
2022-07-29T14:41:33.725Z,31.40
2022-07-29T14:44:20.682Z,31.60
2022-07-29T14:47:08.301Z,31.70
2022-07-29T14:49:47.738Z,31.80
2022-07-29T14:52:34.671Z,32.90
2022-07-29T14:55:16.487Z,32.00
2022-07-29T14:58:12.096Z,32.10
2022-07-29T15:00:53.193Z,32.10
2022-07-29T15:03:39.766Z,32.20
2022-07-29T15:06:26.683Z,32.30
2022-07-29T15:09:13.743Z,32.40
2022-07-29T15:11:53.686Z,32.40
2022-07-29T15:14:40.678Z,32.50
2022-07-29T15:17:27.687Z,32.60
2022-07-29T15:20:14.860Z,32.60
2022-07-29T15:22:54.715Z,32.60
2022-07-29T15:25:37.192Z,32.70
2022-07-29T15:28:23.665Z,32.80
2022-07-29T15:31:11.749Z,32.70
2022-07-29T15:33:57.595Z,32.90
2022-07-29T15:36:52.840Z,32.90
2022-07-29T15:39:32.678Z,32.90
2022-07-29T15:42:19.734Z,33.00
2022-07-29T15:44:59.688Z,33.00
2022-07-29T15:47:46.672Z,33.00
2022-07-29T15:50:26.734Z,33.10
2022-07-29T15:53:13.686Z,33.10
2022-07-29T15:55:53.834Z,34.20
2022-07-29T15:58:40.692Z,33.20
2022-07-29T16:01:20.821Z,33.30
2022-07-29T16:04:07.719Z,33.30
2022-07-29T16:06:47.825Z,33.30
2022-07-29T16:09:35.705Z,33.40
2022-07-29T16:12:15.750Z,33.30
2022-07-29T16:15:07.585Z,33.40
2022-07-29T16:17:50.398Z,33.50
2022-07-29T16:20:36.705Z,33.40
2022-07-29T16:23:16.760Z,33.50
2022-07-29T16:26:03.690Z,33.50
2022-07-29T16:28:50.699Z,33.50
2022-07-29T16:31:38.757Z,33.50
2022-07-29T16:34:21.787Z,33.50
2022-07-29T16:37:08.716Z,33.50
2022-07-29T16:39:49.814Z,33.50
2022-07-29T16:42:46.597Z,33.60
2022-07-29T16:45:26.868Z,33.60
2022-07-29T16:48:24.705Z,33.60
2022-07-29T16:51:04.756Z,33.70
2022-07-29T16:53:52.721Z,33.70
2022-07-29T16:56:32.792Z,33.80
2022-07-29T16:59:20.701Z,33.80
2022-07-29T17:02:02.630Z,33.70
2022-07-29T17:04:49.706Z,33.80
2022-07-29T17:07:29.775Z,33.90
2022-07-29T17:10:17.697Z,33.80
2022-07-29T17:12:57.827Z,34.00
2022-07-29T17:15:44.696Z,33.90
2022-07-29T17:18:24.758Z,33.90
2022-07-29T17:21:11.705Z,34.00
2022-07-29T17:23:51.761Z,34.10
2022-07-29T17:26:38.719Z,34.00
2022-07-29T17:29:32.714Z,34.00
2022-07-29T17:32:19.774Z,34.10
2022-07-29T17:34:59.702Z,34.10
2022-07-29T17:37:46.703Z,34.20
2022-07-29T17:40:26.774Z,34.20
2022-07-29T17:43:15.706Z,34.20
2022-07-29T17:45:59.374Z,34.20
2022-07-29T17:48:47.746Z,34.30
2022-07-29T17:51:28.805Z,34.20
2022-07-29T17:54:15.726Z,34.20
2022-07-29T17:56:55.925Z,34.30
2022-07-29T17:59:43.716Z,34.30
2022-07-29T18:02:23.836Z,34.50
2022-07-29T18:05:12.726Z,34.30
2022-07-29T18:07:52.772Z,34.50
2022-07-29T18:10:40.701Z,34.50
2022-07-29T18:13:20.819Z,34.60
2022-07-29T18:16:07.761Z,34.60
2022-07-29T18:18:47.881Z,34.60
2022-07-29T18:21:42.614Z,34.60
2022-07-29T18:24:31.846Z,34.70
2022-07-29T18:27:18.717Z,34.70
2022-07-29T18:30:06.721Z,34.80
2022-07-29T18:33:19.236Z,34.90
2022-07-29T18:36:10.494Z,35.00
2022-07-29T18:38:52.206Z,35.00
2022-07-29T18:41:38.719Z,35.20
2022-07-29T18:44:30.233Z,35.30
2022-07-29T18:47:16.720Z,35.20
2022-07-29T18:49:57.180Z,36.20
2022-07-29T18:52:43.735Z,35.30
2022-07-29T18:55:31.711Z,35.40
2022-07-29T18:58:18.726Z,35.50
2022-07-29T19:00:59.302Z,35.50
2022-07-29T19:03:45.748Z,35.60
2022-07-29T19:06:26.308Z,35.60
2022-07-29T19:09:12.722Z,35.80
2022-07-29T19:12:03.451Z,35.80
2022-07-29T19:14:45.730Z,35.90
2022-07-29T19:17:26.302Z,35.90
2022-07-29T19:20:12.725Z,36.00
2022-07-29T19:22:59.732Z,36.00
2022-07-29T19:25:53.134Z,36.10
2022-07-29T19:28:48.830Z,36.20
2022-07-29T19:31:29.293Z,36.30
2022-07-29T19:34:15.728Z,36.30
2022-07-29T19:37:02.852Z,36.40
2022-07-29T19:39:42.734Z,36.50
2022-07-29T19:42:29.836Z,36.60
2022-07-29T19:45:10.746Z,36.70
2022-07-29T19:48:01.260Z,36.70
2022-07-29T19:50:41.751Z,36.80
2022-07-29T19:53:23.326Z,36.90
2022-07-29T19:56:09.767Z,37.00
2022-07-29T19:58:57.022Z,37.10
2022-07-29T20:01:38.777Z,37.20
2022-07-29T20:04:19.214Z,37.20
2022-07-29T20:07:07.728Z,37.30
2022-07-29T20:09:55.754Z,37.40
2022-07-29T20:12:37.365Z,37.70
2022-07-29T20:15:23.760Z,37.80
2022-07-29T20:18:03.802Z,38.00
2022-07-29T20:20:50.728Z,38.10
2022-07-29T20:23:33.147Z,38.30
2022-07-29T20:26:20.742Z,38.50
2022-07-29T20:29:07.858Z,38.80
2022-07-29T20:31:52.899Z,39.10
2022-07-29T20:34:43.865Z,39.10
2022-07-29T20:37:26.740Z,39.30
2022-07-29T20:40:15.230Z,39.50
2022-07-29T20:42:54.756Z,39.60
2022-07-29T20:45:42.806Z,39.70
2022-07-29T20:48:22.754Z,39.90
2022-07-29T20:51:09.744Z,40.10
2022-07-29T20:53:56.770Z,40.10
2022-07-29T20:56:43.834Z,40.20
2022-07-29T20:59:23.815Z,40.40
2022-07-29T21:02:10.854Z,40.40
2022-07-29T21:04:50.803Z,40.50
2022-07-29T21:07:37.765Z,40.50
2022-07-29T21:10:18.384Z,40.70
2022-07-29T21:13:04.734Z,40.70
2022-07-29T21:15:48.342Z,40.90
2022-07-29T21:18:43.734Z,41.00
2022-07-29T21:21:24.602Z,42.30
2022-07-29T21:24:12.249Z,41.30
2022-07-29T21:27:18.231Z,41.30
2022-07-29T21:29:58.747Z,41.30
2022-07-29T21:32:39.862Z,41.30
2022-07-29T21:36:01.541Z,41.30
2022-07-29T21:38:26.846Z,41.60
2022-07-29T21:41:13.784Z,41.60
2022-07-29T21:43:54.616Z,41.70
2022-07-29T21:46:44.762Z,41.90
2022-07-29T21:49:24.855Z,42.00
2022-07-29T21:52:12.759Z,42.10
2022-07-29T21:54:52.826Z,42.20
2022-07-29T21:57:39.762Z,42.20
2022-07-29T22:00:21.072Z,42.30
2022-07-29T22:03:10.752Z,42.30
2022-07-29T22:05:57.783Z,42.40
2022-07-29T22:08:46.750Z,42.40
2022-07-29T22:11:26.831Z,42.50
2022-07-29T22:14:13.754Z,42.60
2022-07-29T22:16:58.057Z,42.70
2022-07-29T22:19:44.757Z,42.70
2022-07-29T22:22:33.751Z,42.80
2022-07-29T22:25:20.776Z,42.90
2022-07-29T22:28:07.765Z,43.00
2022-07-29T22:31:01.808Z,43.00
2022-07-29T22:33:48.777Z,43.10
2022-07-29T22:36:28.816Z,43.20
2022-07-29T22:39:16.195Z,43.30
2022-07-29T22:41:55.814Z,43.40
2022-07-29T22:44:42.778Z,43.40
2022-07-29T22:47:39.026Z,43.40
2022-07-29T22:50:29.778Z,43.50
2022-07-29T22:53:10.840Z,43.60
2022-07-29T22:55:57.778Z,43.70
2022-07-29T22:58:44.791Z,43.80
2022-07-29T23:01:37.616Z,43.90
2022-07-29T23:04:24.782Z,43.90
2022-07-29T23:07:11.794Z,44.00
2022-07-29T23:09:51.969Z,44.20
2022-07-29T23:12:38.787Z,44.10
2022-07-29T23:15:18.812Z,44.30
2022-07-29T23:18:05.773Z,44.20
2022-07-29T23:20:52.778Z,44.30
2022-07-29T23:23:33.287Z,44.40
2022-07-29T23:26:22.787Z,44.50
2022-07-29T23:29:09.854Z,44.50
2022-07-29T23:31:49.777Z,45.60
2022-07-29T23:34:36.768Z,44.70
2022-07-29T23:37:16.842Z,44.70
2022-07-29T23:40:03.778Z,44.70
2022-07-29T23:42:43.875Z,44.80
2022-07-29T23:45:42.442Z,44.80
2022-07-29T23:48:23.855Z,45.00
2022-07-29T23:51:10.795Z,45.00
2022-07-29T23:53:53.305Z,45.10
2022-07-29T23:56:40.785Z,46.10
2022-07-29T23:59:20.879Z,45.10
